createdAt,value
2022-08-27T00:01:22.289Z,5.00
2022-08-27T00:03:49.415Z,4.90
2022-08-27T00:06:19.003Z,4.50
2022-08-27T00:08:47.654Z,4.83
2022-08-27T00:11:17.324Z,4.90
2022-08-27T00:13:45.071Z,5.10
2022-08-27T00:16:13.961Z,4.70
2022-08-27T00:18:43.453Z,4.97
2022-08-27T00:21:15.996Z,4.60
2022-08-27T00:23:43.470Z,5.38
2022-08-27T00:26:10.679Z,4.53
2022-08-27T00:28:42.407Z,5.00
2022-08-27T00:31:12.122Z,4.82
2022-08-27T00:33:40.841Z,4.60
2022-08-27T00:36:08.946Z,4.68
2022-08-27T00:38:38.651Z,4.63
2022-08-27T00:41:08.982Z,4.60
2022-08-27T00:43:53.860Z,4.83
2022-08-27T00:46:23.651Z,4.77
2022-08-27T00:48:54.065Z,4.72
2022-08-27T00:51:22.241Z,4.70
2022-08-27T00:53:50.300Z,4.82
2022-08-27T00:56:24.404Z,4.83
2022-08-27T00:58:54.523Z,4.50
2022-08-27T01:01:27.001Z,4.73
2022-08-27T01:03:57.388Z,4.87
2022-08-27T01:06:27.078Z,4.53
2022-08-27T01:09:15.451Z,4.83
2022-08-27T01:11:43.047Z,4.63
2022-08-27T01:14:10.754Z,4.33
2022-08-27T01:16:41.199Z,4.40
2022-08-27T01:19:38.259Z,4.80
2022-08-27T01:22:20.348Z,4.75
2022-08-27T01:24:52.357Z,4.80
2022-08-27T01:27:22.766Z,5.03
2022-08-27T01:29:49.777Z,4.47
2022-08-27T01:32:36.455Z,4.35
2022-08-27T01:35:06.259Z,5.00
2022-08-27T01:37:34.429Z,4.60
2022-08-27T01:40:02.203Z,4.57
2022-08-27T01:42:37.949Z,4.30
2022-08-27T01:45:13.630Z,4.60
2022-08-27T01:47:41.211Z,4.60
2022-08-27T01:50:16.469Z,4.73
2022-08-27T01:52:43.737Z,4.57
2022-08-27T01:55:13.258Z,4.90
2022-08-27T01:57:40.755Z,4.57
2022-08-27T02:00:15.797Z,4.50
2022-08-27T02:02:42.998Z,5.07
2022-08-27T02:05:10.579Z,4.83
2022-08-27T02:07:38.539Z,4.30
2022-08-27T02:10:09.014Z,4.40
2022-08-27T02:12:36.050Z,5.00
2022-08-27T02:15:04.633Z,4.57
2022-08-27T02:17:31.661Z,4.50
2022-08-27T02:20:01.012Z,4.43
2022-08-27T02:22:28.382Z,5.00
2022-08-27T02:24:55.367Z,4.70
2022-08-27T02:27:22.827Z,4.40
2022-08-27T02:29:51.800Z,4.73
2022-08-27T02:32:26.960Z,4.00
2022-08-27T02:34:59.753Z,4.60
2022-08-27T02:37:27.014Z,4.90
2022-08-27T02:39:55.474Z,4.40
2022-08-27T02:42:22.468Z,4.47
2022-08-27T02:44:49.671Z,4.30
2022-08-27T02:47:17.066Z,4.37
2022-08-27T02:49:44.575Z,4.27
2022-08-27T02:52:12.092Z,4.30
2022-08-27T02:54:41.028Z,4.37
2022-08-27T02:57:08.011Z,4.30
2022-08-27T02:59:35.183Z,4.40
2022-08-27T03:02:02.296Z,4.37
2022-08-27T03:04:29.530Z,4.50
2022-08-27T03:06:57.046Z,4.55
2022-08-27T03:09:24.067Z,4.40
2022-08-27T03:11:51.000Z,4.30
2022-08-27T03:14:18.264Z,4.65
2022-08-27T03:16:45.231Z,4.67
2022-08-27T03:19:12.403Z,4.93
2022-08-27T03:21:39.426Z,4.10
2022-08-27T03:24:09.330Z,4.40
2022-08-27T03:26:39.789Z,4.60
2022-08-27T03:29:08.034Z,4.80
2022-08-27T03:31:35.113Z,4.27
2022-08-27T03:34:06.894Z,4.73
2022-08-27T03:36:33.891Z,4.60
2022-08-27T03:39:00.874Z,4.38
2022-08-27T03:41:45.374Z,4.20
2022-08-27T03:44:21.271Z,3.77
2022-08-27T03:46:49.345Z,3.93
2022-08-27T03:49:20.677Z,4.13
2022-08-27T03:51:50.547Z,4.55
2022-08-27T03:54:17.979Z,4.53
2022-08-27T03:56:45.113Z,4.50
2022-08-27T03:59:12.193Z,4.90
2022-08-27T04:01:39.287Z,4.57
2022-08-27T04:04:06.889Z,4.47
2022-08-27T04:06:35.434Z,4.90
2022-08-27T04:09:02.803Z,4.37
2022-08-27T04:11:29.726Z,4.47
2022-08-27T04:13:57.280Z,4.50
2022-08-27T04:16:25.877Z,4.77
2022-08-27T04:18:55.473Z,4.37
2022-08-27T04:21:23.320Z,4.47
2022-08-27T04:23:50.987Z,4.20
2022-08-27T04:26:20.304Z,4.10
2022-08-27T04:28:48.651Z,4.35
2022-08-27T04:31:17.102Z,4.60
2022-08-27T04:33:50.615Z,4.57
2022-08-27T04:36:19.860Z,4.18
2022-08-27T04:38:47.905Z,4.30
2022-08-27T04:41:21.536Z,4.27
2022-08-27T04:43:55.355Z,4.80
2022-08-27T04:46:29.224Z,4.37
2022-08-27T04:48:58.360Z,4.43
2022-08-27T04:51:26.450Z,4.23
2022-08-27T04:53:54.384Z,4.30
2022-08-27T04:56:23.024Z,4.30
2022-08-27T04:58:51.271Z,4.45
2022-08-27T05:01:24.821Z,4.10
2022-08-27T05:03:52.060Z,4.47
2022-08-27T05:06:19.982Z,4.28
2022-08-27T05:08:49.177Z,4.37
2022-08-27T05:11:17.000Z,4.53
2022-08-27T05:13:45.427Z,3.80
2022-08-27T05:16:16.518Z,4.35
2022-08-27T05:18:48.409Z,4.32
2022-08-27T05:21:32.430Z,4.23
2022-08-27T05:24:01.709Z,4.38
2022-08-27T05:26:29.910Z,4.13
2022-08-27T05:29:00.238Z,4.35
2022-08-27T05:31:28.501Z,4.50
2022-08-27T05:33:57.818Z,4.27
2022-08-27T05:36:28.597Z,4.83
2022-08-27T05:38:57.253Z,4.60
2022-08-27T05:41:34.231Z,3.73
2022-08-27T05:44:18.400Z,4.73
2022-08-27T05:46:51.358Z,4.10
2022-08-27T05:49:18.554Z,4.10
2022-08-27T05:51:45.554Z,4.37
2022-08-27T05:54:19.202Z,4.10
2022-08-27T05:56:46.926Z,4.50
2022-08-27T05:59:34.977Z,4.32
2022-08-27T06:02:02.672Z,4.38
2022-08-27T06:04:30.022Z,4.40
2022-08-27T06:06:57.023Z,4.37
2022-08-27T06:09:28.944Z,4.20
2022-08-27T06:12:02.114Z,4.47
2022-08-27T06:14:29.968Z,4.10
2022-08-27T06:17:00.689Z,4.00
2022-08-27T06:19:28.291Z,4.05
2022-08-27T06:22:00.506Z,4.10
2022-08-27T06:24:38.351Z,3.88
2022-08-27T06:27:05.458Z,3.97
2022-08-27T06:29:35.258Z,4.55
2022-08-27T06:32:02.502Z,4.63
2022-08-27T06:34:29.439Z,3.80
2022-08-27T06:36:56.354Z,4.13
2022-08-27T06:39:23.281Z,4.00
2022-08-27T06:41:50.459Z,4.28
2022-08-27T06:44:17.883Z,4.07
2022-08-27T06:46:45.185Z,3.92
2022-08-27T06:49:13.503Z,4.03
2022-08-27T06:51:44.869Z,4.30
2022-08-27T06:54:13.131Z,4.10
2022-08-27T06:56:41.620Z,4.30
2022-08-27T06:59:12.304Z,4.00
2022-08-27T07:01:42.685Z,4.00
2022-08-27T07:04:13.489Z,4.13
2022-08-27T07:06:41.143Z,3.90
2022-08-27T07:09:09.128Z,4.10
2022-08-27T07:11:38.576Z,4.07
2022-08-27T07:14:07.048Z,3.83
2022-08-27T07:16:35.286Z,4.43
2022-08-27T07:19:04.448Z,4.10
2022-08-27T07:21:33.057Z,3.78
2022-08-27T07:24:04.923Z,4.28
2022-08-27T07:26:34.848Z,3.90
2022-08-27T07:29:02.505Z,4.10
2022-08-27T07:31:30.015Z,3.60
2022-08-27T07:33:57.112Z,3.92
2022-08-27T07:36:24.512Z,3.90
2022-08-27T07:39:00.880Z,3.70
2022-08-27T07:41:31.879Z,3.70
2022-08-27T07:44:20.975Z,4.10
2022-08-27T07:46:54.578Z,4.23
2022-08-27T07:49:22.511Z,4.13
2022-08-27T07:51:50.391Z,3.90
2022-08-27T07:54:17.865Z,4.30
2022-08-27T07:56:55.371Z,4.43
2022-08-27T07:59:24.854Z,4.13
2022-08-27T08:01:52.470Z,3.70
2022-08-27T08:04:20.644Z,4.00
2022-08-27T08:06:48.149Z,4.00
2022-08-27T08:09:15.516Z,3.87
2022-08-27T08:11:42.469Z,3.73
2022-08-27T08:14:09.462Z,3.77
2022-08-27T08:16:36.579Z,3.93
2022-08-27T08:19:03.611Z,3.70
2022-08-27T08:21:31.245Z,3.70
2022-08-27T08:23:58.832Z,3.93
2022-08-27T08:26:25.952Z,4.00
2022-08-27T08:28:52.863Z,4.13
2022-08-27T08:31:20.843Z,4.30
2022-08-27T08:33:50.411Z,3.87
2022-08-27T08:36:18.268Z,4.17
2022-08-27T08:38:46.697Z,4.20
2022-08-27T08:41:31.015Z,4.13
2022-08-27T08:44:03.361Z,3.97
2022-08-27T08:46:46.728Z,4.20
2022-08-27T08:49:39.342Z,4.17
2022-08-27T08:52:39.532Z,3.55
2022-08-27T08:55:32.146Z,3.85
2022-08-27T08:58:36.414Z,3.55
2022-08-27T09:01:06.476Z,3.90
2022-08-27T09:03:36.466Z,3.87
2022-08-27T09:06:07.413Z,3.80
2022-08-27T09:08:43.351Z,4.27
2022-08-27T09:11:32.460Z,3.55
2022-08-27T09:14:03.129Z,3.70
2022-08-27T09:16:30.471Z,4.00
2022-08-27T09:18:57.721Z,3.70
2022-08-27T09:21:32.319Z,3.60
2022-08-27T09:24:02.345Z,4.07
2022-08-27T09:26:31.805Z,3.75
2022-08-27T09:29:19.067Z,3.50
2022-08-27T09:32:09.069Z,4.20
2022-08-27T09:34:39.587Z,3.67
2022-08-27T09:37:34.838Z,3.65
2022-08-27T09:40:32.381Z,4.00
2022-08-27T09:43:08.119Z,3.83
2022-08-27T09:45:36.033Z,4.00
2022-08-27T09:48:11.676Z,4.40
2022-08-27T09:50:51.142Z,3.70
2022-08-27T09:53:25.502Z,3.67
2022-08-27T09:56:05.014Z,3.90
2022-08-27T09:58:52.734Z,3.90
2022-08-27T10:01:31.914Z,4.10
2022-08-27T10:04:16.492Z,3.90
2022-08-27T10:06:51.881Z,3.80
2022-08-27T10:09:30.278Z,3.80
2022-08-27T10:12:10.229Z,3.70
2022-08-27T10:14:51.420Z,3.80
2022-08-27T10:17:47.117Z,3.80
2022-08-27T10:20:25.798Z,3.63
2022-08-27T10:23:12.766Z,3.88
2022-08-27T10:25:54.737Z,3.70
2022-08-27T10:28:57.865Z,3.87
2022-08-27T10:31:48.736Z,3.70
2022-08-27T10:34:37.540Z,3.83
2022-08-27T10:37:11.397Z,3.67
2022-08-27T10:40:10.299Z,3.80
2022-08-27T10:42:52.040Z,3.47
2022-08-27T10:45:58.467Z,3.40
2022-08-27T10:48:38.259Z,3.90
2022-08-27T10:51:20.125Z,3.50
2022-08-27T10:53:55.170Z,3.90
2022-08-27T10:56:25.201Z,3.50
2022-08-27T10:59:18.541Z,3.47
2022-08-27T11:01:51.406Z,3.80
2022-08-27T11:04:24.499Z,3.57
2022-08-27T11:06:55.441Z,3.57
2022-08-27T11:09:50.794Z,3.47
2022-08-27T11:12:33.741Z,3.60
2022-08-27T11:15:12.720Z,3.73
2022-08-27T11:17:53.544Z,3.70
2022-08-27T11:20:31.905Z,3.50
2022-08-27T11:23:07.200Z,3.67
2022-08-27T11:25:37.620Z,3.77
2022-08-27T11:28:06.544Z,3.60
2022-08-27T11:30:45.612Z,3.40
2022-08-27T11:33:46.231Z,3.90
2022-08-27T11:36:54.485Z,3.83
2022-08-27T11:39:40.267Z,3.65
2022-08-27T11:42:36.153Z,3.67
2022-08-27T11:45:17.954Z,3.70
2022-08-27T11:47:53.519Z,3.70
2022-08-27T11:50:22.381Z,3.70
2022-08-27T11:53:27.852Z,3.53
2022-08-27T11:55:56.000Z,3.33
2022-08-27T11:58:27.990Z,3.80
2022-08-27T12:00:55.411Z,3.55
2022-08-27T12:03:22.302Z,3.67
2022-08-27T12:06:09.608Z,3.35
2022-08-27T12:08:36.978Z,3.47
2022-08-27T12:11:35.848Z,3.40
2022-08-27T12:14:17.101Z,3.40
2022-08-27T12:17:01.871Z,3.47
2022-08-27T12:19:57.026Z,3.60
2022-08-27T12:22:34.763Z,3.33
2022-08-27T12:25:06.382Z,3.70
2022-08-27T12:27:37.374Z,3.50
2022-08-27T12:30:28.023Z,3.70
2022-08-27T12:32:57.906Z,3.20
2022-08-27T12:35:47.414Z,3.23
2022-08-27T12:38:50.317Z,3.65
2022-08-27T12:41:32.079Z,3.37
2022-08-27T12:44:24.854Z,3.70
2022-08-27T12:46:59.165Z,3.60
2022-08-27T12:49:36.154Z,3.47
2022-08-27T12:52:19.170Z,3.30
2022-08-27T12:54:54.811Z,3.63
2022-08-27T12:57:40.704Z,3.20
2022-08-27T13:00:26.855Z,3.20
2022-08-27T13:03:08.956Z,3.50
2022-08-27T13:05:42.028Z,3.40
2022-08-27T13:08:24.568Z,3.28
2022-08-27T13:10:51.568Z,3.47
2022-08-27T13:13:21.519Z,3.70
2022-08-27T13:15:59.582Z,3.33
2022-08-27T13:18:29.489Z,3.23
2022-08-27T13:21:04.680Z,3.50
2022-08-27T13:23:31.857Z,3.40
2022-08-27T13:26:06.700Z,3.40
2022-08-27T13:28:35.734Z,3.80
2022-08-27T13:31:04.014Z,3.90
2022-08-27T13:33:37.515Z,3.20
2022-08-27T13:36:06.830Z,3.47
2022-08-27T13:38:45.489Z,3.33
2022-08-27T13:41:26.849Z,3.83
2022-08-27T13:43:59.028Z,3.67
2022-08-27T13:46:30.013Z,3.38
2022-08-27T13:48:59.229Z,3.50
2022-08-27T13:51:32.419Z,3.30
2022-08-27T13:54:15.570Z,3.30
2022-08-27T13:56:49.118Z,3.40
2022-08-27T13:59:19.506Z,3.90
2022-08-27T14:02:09.696Z,2.88
2022-08-27T14:04:39.759Z,3.50
2022-08-27T14:07:14.101Z,3.30
2022-08-27T14:09:51.688Z,3.50
2022-08-27T14:12:41.670Z,3.17
2022-08-27T14:15:20.858Z,3.47
2022-08-27T14:17:48.054Z,3.28
2022-08-27T14:20:18.117Z,3.30
2022-08-27T14:22:45.481Z,3.60
2022-08-27T14:25:13.817Z,3.40
2022-08-27T14:27:45.045Z,3.23
2022-08-27T14:30:29.330Z,3.60
2022-08-27T14:32:59.013Z,3.55
2022-08-27T14:35:27.047Z,3.65
2022-08-27T14:37:54.783Z,3.10
2022-08-27T14:40:22.290Z,3.30
2022-08-27T14:42:49.402Z,3.20
2022-08-27T14:45:18.525Z,3.60
2022-08-27T14:47:45.677Z,3.53
2022-08-27T14:50:14.168Z,3.67
2022-08-27T14:52:41.368Z,3.38
2022-08-27T14:55:10.880Z,3.33
2022-08-27T14:57:38.483Z,3.30
2022-08-27T15:00:08.136Z,4.00
2022-08-27T15:02:36.509Z,3.30
2022-08-27T15:05:11.915Z,2.70
2022-08-27T15:07:42.224Z,3.25
2022-08-27T15:10:14.744Z,3.15
2022-08-27T15:12:42.084Z,3.80
2022-08-27T15:15:10.230Z,3.33
2022-08-27T15:17:37.220Z,3.60
2022-08-27T15:20:08.643Z,3.10
2022-08-27T15:22:37.887Z,3.13
2022-08-27T15:25:09.701Z,3.30
2022-08-27T15:27:39.156Z,3.33
2022-08-27T15:30:09.003Z,3.50
2022-08-27T15:32:39.565Z,3.30
2022-08-27T15:35:12.409Z,2.97
2022-08-27T15:37:40.425Z,3.20
2022-08-27T15:40:08.260Z,3.60
2022-08-27T15:42:35.356Z,3.15
2022-08-27T15:45:02.699Z,3.22
2022-08-27T15:47:29.621Z,3.37
2022-08-27T15:49:56.553Z,3.30
2022-08-27T15:52:23.929Z,3.50
2022-08-27T15:54:51.519Z,3.10
2022-08-27T15:57:20.476Z,3.17
2022-08-27T15:59:48.373Z,3.20
2022-08-27T16:02:21.854Z,3.00
2022-08-27T16:04:49.550Z,2.90
2022-08-27T16:07:17.788Z,3.23
2022-08-27T16:09:47.966Z,3.20
2022-08-27T16:12:27.024Z,3.30
2022-08-27T16:14:55.185Z,3.20
2022-08-27T16:17:22.970Z,3.10
2022-08-27T16:19:50.118Z,3.03
2022-08-27T16:22:17.294Z,3.37
2022-08-27T16:24:44.591Z,3.00
2022-08-27T16:27:11.809Z,3.10
2022-08-27T16:29:38.765Z,3.33
2022-08-27T16:32:08.743Z,3.13
2022-08-27T16:34:35.669Z,3.60
2022-08-27T16:37:02.566Z,3.13
2022-08-27T16:39:33.678Z,3.20
2022-08-27T16:42:03.571Z,3.50
2022-08-27T16:44:31.831Z,3.20
2022-08-27T16:46:58.759Z,3.00
2022-08-27T16:49:44.338Z,3.17
2022-08-27T16:52:11.665Z,3.40
2022-08-27T16:54:38.784Z,2.97
2022-08-27T16:57:05.936Z,3.40
2022-08-27T16:59:35.579Z,3.40
2022-08-27T17:02:02.946Z,3.20
2022-08-27T17:04:37.986Z,2.80
2022-08-27T17:07:08.986Z,3.00
2022-08-27T17:09:38.433Z,3.13
2022-08-27T17:12:05.657Z,3.17
2022-08-27T17:14:38.053Z,3.23
2022-08-27T17:17:08.350Z,2.97
2022-08-27T17:19:37.066Z,3.20
2022-08-27T17:22:04.938Z,3.40
2022-08-27T17:24:32.177Z,3.47
2022-08-27T17:26:59.332Z,3.20
2022-08-27T17:29:27.012Z,3.15
2022-08-27T17:31:53.993Z,3.33
2022-08-27T17:34:23.977Z,3.20
2022-08-27T17:36:52.806Z,2.90
2022-08-27T17:39:20.839Z,3.03
2022-08-27T17:41:50.452Z,3.23
2022-08-27T17:44:37.316Z,3.37
2022-08-27T17:47:07.900Z,2.80
2022-08-27T17:49:35.474Z,3.20
2022-08-27T17:52:09.803Z,3.33
2022-08-27T17:54:43.574Z,3.23
2022-08-27T17:57:23.078Z,3.13
2022-08-27T17:59:50.689Z,2.93
2022-08-27T18:02:32.223Z,3.13
2022-08-27T18:04:59.222Z,3.10
2022-08-27T18:07:26.727Z,3.00
2022-08-27T18:09:53.754Z,3.33
2022-08-27T18:12:23.469Z,3.17
2022-08-27T18:15:05.415Z,3.00
2022-08-27T18:17:33.303Z,2.90
2022-08-27T18:20:00.577Z,2.90
2022-08-27T18:22:28.351Z,3.03
2022-08-27T18:24:56.768Z,3.30
2022-08-27T18:27:29.283Z,2.87
2022-08-27T18:29:57.650Z,2.70
2022-08-27T18:32:25.399Z,2.93
2022-08-27T18:34:52.524Z,2.93
2022-08-27T18:37:19.628Z,3.00
2022-08-27T18:39:46.562Z,2.80
2022-08-27T18:42:13.885Z,3.10
2022-08-27T18:44:43.655Z,3.07
2022-08-27T18:47:10.564Z,2.83
2022-08-27T18:49:37.751Z,3.28
2022-08-27T18:52:06.844Z,2.80
2022-08-27T18:54:33.740Z,2.80
2022-08-27T18:57:00.764Z,2.72
2022-08-27T18:59:27.644Z,3.20
2022-08-27T19:01:56.225Z,2.80
2022-08-27T19:04:24.588Z,2.93
2022-08-27T19:06:51.687Z,2.80
2022-08-27T19:09:19.192Z,2.70
2022-08-27T19:11:46.160Z,2.73
2022-08-27T19:14:13.060Z,2.77
2022-08-27T19:16:45.392Z,2.87
2022-08-27T19:19:14.931Z,2.73
2022-08-27T19:21:42.543Z,2.90
2022-08-27T19:24:10.583Z,3.03
2022-08-27T19:26:38.542Z,3.17
2022-08-27T19:29:06.206Z,3.00
2022-08-27T19:31:34.871Z,2.80
2022-08-27T19:34:06.460Z,2.70
2022-08-27T19:36:37.112Z,2.83
2022-08-27T19:39:06.055Z,2.70
2022-08-27T19:41:33.214Z,2.77
2022-08-27T19:44:00.102Z,3.20
2022-08-27T19:46:27.252Z,3.03
2022-08-27T19:48:55.403Z,2.50
2022-08-27T19:51:22.481Z,2.93
2022-08-27T19:53:49.500Z,3.00
2022-08-27T19:56:17.422Z,3.17
2022-08-27T19:58:45.590Z,2.63
2022-08-27T20:01:13.091Z,2.90
2022-08-27T20:03:40.662Z,2.80
2022-08-27T20:06:08.441Z,3.03
2022-08-27T20:08:35.377Z,2.87
2022-08-27T20:11:02.273Z,2.70
2022-08-27T20:13:33.038Z,2.93
2022-08-27T20:16:00.641Z,2.87
2022-08-27T20:18:27.920Z,2.97
2022-08-27T20:20:54.976Z,2.70
2022-08-27T20:23:21.959Z,2.70
2022-08-27T20:25:52.428Z,2.97
2022-08-27T20:28:39.042Z,2.70
2022-08-27T20:31:07.452Z,2.60
2022-08-27T20:33:34.415Z,2.67
2022-08-27T20:36:02.671Z,2.83
2022-08-27T20:38:29.779Z,2.70
2022-08-27T20:40:56.791Z,2.90
2022-08-27T20:43:23.758Z,2.80
2022-08-27T20:45:50.896Z,2.90
2022-08-27T20:48:18.475Z,2.73
2022-08-27T20:50:45.496Z,2.70
2022-08-27T20:53:13.026Z,2.80
2022-08-27T20:55:40.463Z,2.77
2022-08-27T20:58:26.328Z,2.80
2022-08-27T21:00:54.688Z,2.90
2022-08-27T21:03:22.313Z,2.90
2022-08-27T21:05:49.396Z,2.80
2022-08-27T21:08:19.377Z,2.70
2022-08-27T21:10:49.310Z,2.80
2022-08-27T21:13:16.900Z,2.60
2022-08-27T21:15:44.200Z,2.90
2022-08-27T21:18:11.689Z,2.93
2022-08-27T21:20:39.247Z,2.70
2022-08-27T21:23:06.279Z,2.50
2022-08-27T21:25:33.422Z,2.77
2022-08-27T21:28:03.489Z,2.73
2022-08-27T21:30:30.766Z,2.80
2022-08-27T21:32:57.752Z,2.97
2022-08-27T21:35:29.311Z,2.80
2022-08-27T21:37:57.731Z,2.70
2022-08-27T21:40:26.442Z,2.87
2022-08-27T21:42:53.705Z,2.73
2022-08-27T21:45:21.072Z,2.60
2022-08-27T21:47:48.730Z,2.60
2022-08-27T21:50:15.783Z,2.57
2022-08-27T21:52:42.703Z,2.90
2022-08-27T21:55:10.329Z,2.55
2022-08-27T21:57:37.311Z,2.30
2022-08-27T22:00:17.069Z,2.70
2022-08-27T22:02:44.035Z,2.73
2022-08-27T22:05:11.320Z,2.70
2022-08-27T22:07:38.356Z,2.50
2022-08-27T22:10:06.240Z,2.70
2022-08-27T22:12:33.419Z,2.50
2022-08-27T22:15:00.777Z,2.87
2022-08-27T22:17:27.991Z,2.90
2022-08-27T22:19:54.886Z,2.60
2022-08-27T22:22:21.818Z,2.67
2022-08-27T22:24:48.764Z,2.90
2022-08-27T22:27:15.706Z,2.90
2022-08-27T22:29:42.622Z,2.90
2022-08-27T22:32:09.523Z,2.73
2022-08-27T22:34:36.783Z,2.70
2022-08-27T22:37:04.299Z,2.47
2022-08-27T22:39:31.596Z,2.67
2022-08-27T22:42:00.153Z,2.43
2022-08-27T22:44:29.438Z,2.40
2022-08-27T22:46:57.334Z,2.63
2022-08-27T22:49:24.571Z,2.63
2022-08-27T22:51:51.503Z,2.53
2022-08-27T22:54:18.793Z,2.70
2022-08-27T22:56:45.708Z,2.77
2022-08-27T22:59:12.704Z,2.60
2022-08-27T23:01:39.604Z,2.60
2022-08-27T23:04:07.127Z,2.53
2022-08-27T23:06:34.339Z,2.90
2022-08-27T23:09:01.900Z,2.80
2022-08-27T23:11:31.939Z,2.30
2022-08-27T23:13:59.623Z,2.43
2022-08-27T23:16:27.239Z,2.50
2022-08-27T23:18:54.730Z,2.43
2022-08-27T23:21:21.742Z,2.33
2022-08-27T23:23:49.138Z,2.37
2022-08-27T23:26:34.817Z,2.50
2022-08-27T23:29:01.811Z,2.50
2022-08-27T23:31:28.751Z,2.50
2022-08-27T23:33:56.181Z,2.37
2022-08-27T23:36:23.720Z,2.50
2022-08-27T23:38:51.052Z,2.40
2022-08-27T23:41:17.994Z,2.70
2022-08-27T23:43:45.627Z,2.50
2022-08-27T23:46:13.144Z,2.67
2022-08-27T23:48:40.453Z,2.50
2022-08-27T23:51:08.619Z,2.60
2022-08-27T23:53:36.661Z,2.37
2022-08-27T23:56:03.932Z,2.70
2022-08-27T23:58:30.834Z,2.60
